sensor_id;sensor_type;location;lat;lon;timestamp;P1;durP1;ratioP1;P2;durP2;ratioP2
26303;SDS011;70693;48.680;8.890;2024-03-07T00:00:18;9.40;;;7.07;;
26303;SDS011;70693;48.680;8.890;2024-03-07T00:02:45;9.48;;;7.63;;
26303;SDS011;70693;48.680;8.890;2024-03-07T00:05:14;9.52;;;7.65;;
26303;SDS011;70693;48.680;8.890;2024-03-07T00:07:41;8.63;;;6.97;;
26303;SDS011;70693;48.680;8.890;2024-03-07T00:10:07;10.75;;;7.82;;
26303;SDS011;70693;48.680;8.890;2024-03-07T00:12:34;9.40;;;7.60;;
26303;SDS011;70693;48.680;8.890;2024-03-07T00:15:01;9.40;;;7.43;;
26303;SDS011;70693;48.680;8.890;2024-03-07T00:17:31;9.57;;;7.55;;
26303;SDS011;70693;48.680;8.890;2024-03-07T00:19:56;11.00;;;7.90;;
26303;SDS011;70693;48.680;8.890;2024-03-07T00:22:22;8.75;;;6.88;;
26303;SDS011;70693;48.680;8.890;2024-03-07T00:24:49;11.57;;;8.23;;
26303;SDS011;70693;48.680;8.890;2024-03-07T00:27:15;10.07;;;7.85;;
26303;SDS011;70693;48.680;8.890;2024-03-07T00:29:41;9.02;;;7.25;;
26303;SDS011;70693;48.680;8.890;2024-03-07T00:32:09;9.85;;;6.90;;
26303;SDS011;70693;48.680;8.890;2024-03-07T00:34:35;8.38;;;7.03;;
26303;SDS011;70693;48.680;8.890;2024-03-07T00:37:00;9.35;;;7.72;;
26303;SDS011;70693;48.680;8.890;2024-03-07T00:39:27;10.98;;;7.53;;
26303;SDS011;70693;48.680;8.890;2024-03-07T00:41:53;8.82;;;7.15;;
26303;SDS011;70693;48.680;8.890;2024-03-07T00:44:18;9.73;;;7.57;;
26303;SDS011;70693;48.680;8.890;2024-03-07T00:46:44;8.63;;;6.70;;
26303;SDS011;70693;48.680;8.890;2024-03-07T00:49:10;9.82;;;7.55;;
26303;SDS011;70693;48.680;8.890;2024-03-07T00:51:36;9.98;;;7.18;;
26303;SDS011;70693;48.680;8.890;2024-03-07T00:54:02;9.15;;;7.32;;
26303;SDS011;70693;48.680;8.890;2024-03-07T00:56:27;10.65;;;7.60;;
26303;SDS011;70693;48.680;8.890;2024-03-07T00:58:53;11.82;;;7.80;;
26303;SDS011;70693;48.680;8.890;2024-03-07T01:01:19;11.73;;;7.13;;
26303;SDS011;70693;48.680;8.890;2024-03-07T01:03:45;10.55;;;7.60;;
26303;SDS011;70693;48.680;8.890;2024-03-07T01:06:10;11.57;;;7.55;;
26303;SDS011;70693;48.680;8.890;2024-03-07T01:08:36;8.75;;;6.90;;
26303;SDS011;70693;48.680;8.890;2024-03-07T01:11:03;11.70;;;7.50;;
26303;SDS011;70693;48.680;8.890;2024-03-07T01:13:37;8.65;;;7.15;;
26303;SDS011;70693;48.680;8.890;2024-03-07T01:16:03;10.98;;;8.00;;
26303;SDS011;70693;48.680;8.890;2024-03-07T01:18:30;9.82;;;7.32;;
26303;SDS011;70693;48.680;8.890;2024-03-07T01:20:58;10.07;;;7.15;;
26303;SDS011;70693;48.680;8.890;2024-03-07T01:23:27;9.40;;;7.28;;
26303;SDS011;70693;48.680;8.890;2024-03-07T01:25:54;9.70;;;7.78;;
26303;SDS011;70693;48.680;8.890;2024-03-07T01:28:21;9.55;;;7.68;;
26303;SDS011;70693;48.680;8.890;2024-03-07T01:30:48;10.23;;;7.40;;
26303;SDS011;70693;48.680;8.890;2024-03-07T01:33:14;9.85;;;7.15;;
26303;SDS011;70693;48.680;8.890;2024-03-07T01:35:40;10.93;;;7.85;;
26303;SDS011;70693;48.680;8.890;2024-03-07T01:38:06;9.80;;;7.75;;
26303;SDS011;70693;48.680;8.890;2024-03-07T01:40:33;9.73;;;7.25;;
26303;SDS011;70693;48.680;8.890;2024-03-07T01:43:00;11.55;;;8.10;;
26303;SDS011;70693;48.680;8.890;2024-03-07T01:45:27;11.77;;;8.27;;
26303;SDS011;70693;48.680;8.890;2024-03-07T01:47:52;9.52;;;7.63;;
26303;SDS011;70693;48.680;8.890;2024-03-07T01:50:18;10.35;;;7.82;;
26303;SDS011;70693;48.680;8.890;2024-03-07T01:52:44;11.73;;;8.13;;
26303;SDS011;70693;48.680;8.890;2024-03-07T01:55:11;9.60;;;7.65;;
26303;SDS011;70693;48.680;8.890;2024-03-07T01:57:38;10.77;;;7.60;;
26303;SDS011;70693;48.680;8.890;2024-03-07T02:00:04;10.50;;;7.43;;
26303;SDS011;70693;48.680;8.890;2024-03-07T02:02:32;12.32;;;8.80;;
26303;SDS011;70693;48.680;8.890;2024-03-07T02:04:58;10.63;;;7.75;;
26303;SDS011;70693;48.680;8.890;2024-03-07T02:07:24;11.63;;;7.60;;
26303;SDS011;70693;48.680;8.890;2024-03-07T02:09:58;11.88;;;8.80;;
26303;SDS011;70693;48.680;8.890;2024-03-07T02:12:28;11.38;;;8.23;;
26303;SDS011;70693;48.680;8.890;2024-03-07T02:14:55;11.55;;;8.50;;
26303;SDS011;70693;48.680;8.890;2024-03-07T02:17:23;11.57;;;7.80;;
26303;SDS011;70693;48.680;8.890;2024-03-07T02:19:49;10.27;;;8.02;;
26303;SDS011;70693;48.680;8.890;2024-03-07T02:22:15;11.70;;;8.43;;
26303;SDS011;70693;48.680;8.890;2024-03-07T02:24:41;11.73;;;7.88;;
26303;SDS011;70693;48.680;8.890;2024-03-07T02:27:07;10.73;;;8.27;;
26303;SDS011;70693;48.680;8.890;2024-03-07T02:29:33;11.07;;;8.57;;
26303;SDS011;70693;48.680;8.890;2024-03-07T02:32:00;12.50;;;8.88;;
26303;SDS011;70693;48.680;8.890;2024-03-07T02:34:25;13.55;;;8.98;;
26303;SDS011;70693;48.680;8.890;2024-03-07T02:36:52;12.32;;;9.35;;
26303;SDS011;70693;48.680;8.890;2024-03-07T02:39:17;12.43;;;9.50;;
26303;SDS011;70693;48.680;8.890;2024-03-07T02:41:43;12.65;;;9.30;;
26303;SDS011;70693;48.680;8.890;2024-03-07T02:44:08;12.43;;;9.40;;
26303;SDS011;70693;48.680;8.890;2024-03-07T02:46:34;12.55;;;9.30;;
26303;SDS011;70693;48.680;8.890;2024-03-07T02:49:00;13.15;;;9.93;;
26303;SDS011;70693;48.680;8.890;2024-03-07T02:51:25;12.18;;;9.88;;
26303;SDS011;70693;48.680;8.890;2024-03-07T02:53:51;14.38;;;10.10;;
26303;SDS011;70693;48.680;8.890;2024-03-07T02:56:17;12.68;;;9.82;;
26303;SDS011;70693;48.680;8.890;2024-03-07T02:58:42;14.77;;;10.40;;
26303;SDS011;70693;48.680;8.890;2024-03-07T03:01:08;12.07;;;10.10;;
26303;SDS011;70693;48.680;8.890;2024-03-07T03:03:35;12.23;;;9.73;;
26303;SDS011;70693;48.680;8.890;2024-03-07T03:06:01;11.48;;;9.63;;
26303;SDS011;70693;48.680;8.890;2024-03-07T03:08:27;13.13;;;10.60;;
26303;SDS011;70693;48.680;8.890;2024-03-07T03:10:53;13.90;;;10.27;;
26303;SDS011;70693;48.680;8.890;2024-03-07T03:13:20;13.32;;;10.48;;
26303;SDS011;70693;48.680;8.890;2024-03-07T03:15:46;15.00;;;11.07;;
26303;SDS011;70693;48.680;8.890;2024-03-07T03:18:11;15.63;;;10.80;;
26303;SDS011;70693;48.680;8.890;2024-03-07T03:20:37;13.52;;;11.05;;
26303;SDS011;70693;48.680;8.890;2024-03-07T03:23:04;14.75;;;12.18;;
26303;SDS011;70693;48.680;8.890;2024-03-07T03:25:30;15.85;;;11.57;;
26303;SDS011;70693;48.680;8.890;2024-03-07T03:28:00;15.95;;;11.25;;
26303;SDS011;70693;48.680;8.890;2024-03-07T03:30:26;15.23;;;11.52;;
26303;SDS011;70693;48.680;8.890;2024-03-07T03:32:52;14.20;;;11.43;;
26303;SDS011;70693;48.680;8.890;2024-03-07T03:35:18;17.55;;;12.02;;
26303;SDS011;70693;48.680;8.890;2024-03-07T03:37:44;15.95;;;12.48;;
26303;SDS011;70693;48.680;8.890;2024-03-07T03:40:11;13.45;;;11.32;;
26303;SDS011;70693;48.680;8.890;2024-03-07T03:42:41;17.05;;;12.40;;
26303;SDS011;70693;48.680;8.890;2024-03-07T03:45:08;15.43;;;12.43;;
26303;SDS011;70693;48.680;8.890;2024-03-07T03:47:35;20.70;;;14.52;;
26303;SDS011;70693;48.680;8.890;2024-03-07T03:50:02;21.48;;;13.95;;
26303;SDS011;70693;48.680;8.890;2024-03-07T03:52:32;17.73;;;13.07;;
26303;SDS011;70693;48.680;8.890;2024-03-07T03:55:00;18.73;;;13.65;;
26303;SDS011;70693;48.680;8.890;2024-03-07T03:57:27;15.77;;;12.27;;
26303;SDS011;70693;48.680;8.890;2024-03-07T03:59:54;17.60;;;13.15;;
26303;SDS011;70693;48.680;8.890;2024-03-07T04:02:24;16.27;;;12.57;;
26303;SDS011;70693;48.680;8.890;2024-03-07T04:04:50;16.77;;;12.85;;
26303;SDS011;70693;48.680;8.890;2024-03-07T04:07:18;16.40;;;12.48;;
26303;SDS011;70693;48.680;8.890;2024-03-07T04:09:44;17.80;;;13.45;;
26303;SDS011;70693;48.680;8.890;2024-03-07T04:12:10;15.70;;;12.68;;
26303;SDS011;70693;48.680;8.890;2024-03-07T04:14:37;17.60;;;13.18;;
26303;SDS011;70693;48.680;8.890;2024-03-07T04:17:06;18.02;;;12.48;;
26303;SDS011;70693;48.680;8.890;2024-03-07T04:19:36;15.70;;;12.07;;
26303;SDS011;70693;48.680;8.890;2024-03-07T04:22:03;18.58;;;12.73;;
26303;SDS011;70693;48.680;8.890;2024-03-07T04:24:30;16.23;;;12.25;;
26303;SDS011;70693;48.680;8.890;2024-03-07T04:26:58;17.85;;;12.88;;
26303;SDS011;70693;48.680;8.890;2024-03-07T04:29:24;18.40;;;13.15;;
26303;SDS011;70693;48.680;8.890;2024-03-07T04:31:50;15.98;;;12.50;;
26303;SDS011;70693;48.680;8.890;2024-03-07T04:34:16;18.33;;;13.73;;
26303;SDS011;70693;48.680;8.890;2024-03-07T04:36:42;16.15;;;13.43;;
26303;SDS011;70693;48.680;8.890;2024-03-07T04:39:08;16.35;;;13.18;;
26303;SDS011;70693;48.680;8.890;2024-03-07T04:41:44;17.10;;;12.57;;
26303;SDS011;70693;48.680;8.890;2024-03-07T04:44:10;16.92;;;12.77;;
26303;SDS011;70693;48.680;8.890;2024-03-07T04:46:36;17.10;;;13.32;;
26303;SDS011;70693;48.680;8.890;2024-03-07T04:49:01;20.50;;;14.32;;
26303;SDS011;70693;48.680;8.890;2024-03-07T04:51:27;16.27;;;13.10;;
26303;SDS011;70693;48.680;8.890;2024-03-07T04:53:54;16.83;;;13.05;;
26303;SDS011;70693;48.680;8.890;2024-03-07T04:56:20;16.75;;;13.00;;
26303;SDS011;70693;48.680;8.890;2024-03-07T04:58:47;15.50;;;12.57;;
26303;SDS011;70693;48.680;8.890;2024-03-07T05:01:14;16.92;;;13.13;;
26303;SDS011;70693;48.680;8.890;2024-03-07T05:03:40;16.48;;;13.18;;
26303;SDS011;70693;48.680;8.890;2024-03-07T05:06:07;18.30;;;14.18;;
26303;SDS011;70693;48.680;8.890;2024-03-07T05:08:33;17.30;;;13.73;;
26303;SDS011;70693;48.680;8.890;2024-03-07T05:10:59;17.17;;;13.98;;
26303;SDS011;70693;48.680;8.890;2024-03-07T05:13:25;17.05;;;13.45;;
26303;SDS011;70693;48.680;8.890;2024-03-07T05:15:50;21.15;;;13.85;;
26303;SDS011;70693;48.680;8.890;2024-03-07T05:18:16;17.95;;;14.18;;
26303;SDS011;70693;48.680;8.890;2024-03-07T05:20:42;18.77;;;13.45;;
26303;SDS011;70693;48.680;8.890;2024-03-07T05:23:07;20.08;;;15.13;;
26303;SDS011;70693;48.680;8.890;2024-03-07T05:25:35;16.20;;;13.35;;
26303;SDS011;70693;48.680;8.890;2024-03-07T05:28:01;18.88;;;14.45;;
26303;SDS011;70693;48.680;8.890;2024-03-07T05:30:27;18.98;;;14.27;;
26303;SDS011;70693;48.680;8.890;2024-03-07T05:32:54;17.30;;;13.70;;
26303;SDS011;70693;48.680;8.890;2024-03-07T05:35:21;18.75;;;14.90;;
26303;SDS011;70693;48.680;8.890;2024-03-07T05:37:47;17.67;;;14.07;;
26303;SDS011;70693;48.680;8.890;2024-03-07T05:40:13;19.02;;;13.82;;
26303;SDS011;70693;48.680;8.890;2024-03-07T05:42:38;18.23;;;14.55;;
26303;SDS011;70693;48.680;8.890;2024-03-07T05:45:04;18.02;;;13.85;;
26303;SDS011;70693;48.680;8.890;2024-03-07T05:47:33;18.27;;;14.73;;
26303;SDS011;70693;48.680;8.890;2024-03-07T05:49:59;17.55;;;14.27;;
26303;SDS011;70693;48.680;8.890;2024-03-07T05:52:24;17.27;;;13.90;;
26303;SDS011;70693;48.680;8.890;2024-03-07T05:54:50;18.55;;;14.63;;
26303;SDS011;70693;48.680;8.890;2024-03-07T05:57:16;17.60;;;14.43;;
26303;SDS011;70693;48.680;8.890;2024-03-07T05:59:41;19.52;;;15.35;;
26303;SDS011;70693;48.680;8.890;2024-03-07T06:02:07;21.35;;;15.20;;
26303;SDS011;70693;48.680;8.890;2024-03-07T06:04:32;19.63;;;14.38;;
26303;SDS011;70693;48.680;8.890;2024-03-07T06:06:59;18.55;;;15.30;;
26303;SDS011;70693;48.680;8.890;2024-03-07T06:09:25;20.77;;;16.65;;
26303;SDS011;70693;48.680;8.890;2024-03-07T06:11:51;18.17;;;15.38;;
26303;SDS011;70693;48.680;8.890;2024-03-07T06:14:17;19.40;;;15.43;;
26303;SDS011;70693;48.680;8.890;2024-03-07T06:16:43;21.25;;;16.90;;
26303;SDS011;70693;48.680;8.890;2024-03-07T06:19:09;19.70;;;15.20;;
26303;SDS011;70693;48.680;8.890;2024-03-07T06:21:36;19.77;;;16.30;;
26303;SDS011;70693;48.680;8.890;2024-03-07T06:24:04;20.63;;;16.52;;
26303;SDS011;70693;48.680;8.890;2024-03-07T06:26:31;19.67;;;16.05;;
26303;SDS011;70693;48.680;8.890;2024-03-07T06:29:13;21.05;;;16.05;;
26303;SDS011;70693;48.680;8.890;2024-03-07T06:31:42;19.00;;;15.70;;
26303;SDS011;70693;48.680;8.890;2024-03-07T06:34:08;17.85;;;14.32;;
26303;SDS011;70693;48.680;8.890;2024-03-07T06:36:35;19.67;;;15.13;;
26303;SDS011;70693;48.680;8.890;2024-03-07T06:39:00;17.45;;;14.02;;
26303;SDS011;70693;48.680;8.890;2024-03-07T06:41:33;18.67;;;15.02;;
26303;SDS011;70693;48.680;8.890;2024-03-07T06:43:59;17.17;;;14.00;;
26303;SDS011;70693;48.680;8.890;2024-03-07T06:46:25;17.25;;;15.32;;
26303;SDS011;70693;48.680;8.890;2024-03-07T06:48:52;18.88;;;15.48;;
26303;SDS011;70693;48.680;8.890;2024-03-07T06:51:18;17.65;;;14.15;;
26303;SDS011;70693;48.680;8.890;2024-03-07T06:53:44;18.88;;;14.98;;
26303;SDS011;70693;48.680;8.890;2024-03-07T06:56:13;19.25;;;14.77;;
26303;SDS011;70693;48.680;8.890;2024-03-07T06:58:39;19.35;;;14.95;;
26303;SDS011;70693;48.680;8.890;2024-03-07T07:01:05;17.70;;;14.07;;
26303;SDS011;70693;48.680;8.890;2024-03-07T07:03:38;19.42;;;15.60;;
26303;SDS011;70693;48.680;8.890;2024-03-07T07:06:04;17.77;;;14.20;;
26303;SDS011;70693;48.680;8.890;2024-03-07T07:08:32;19.75;;;14.98;;
26303;SDS011;70693;48.680;8.890;2024-03-07T07:10:58;20.55;;;14.77;;
26303;SDS011;70693;48.680;8.890;2024-03-07T07:13:24;20.90;;;15.48;;
26303;SDS011;70693;48.680;8.890;2024-03-07T07:15:49;18.60;;;14.00;;
26303;SDS011;70693;48.680;8.890;2024-03-07T07:18:15;18.45;;;14.15;;
26303;SDS011;70693;48.680;8.890;2024-03-07T07:20:41;18.73;;;13.90;;
26303;SDS011;70693;48.680;8.890;2024-03-07T07:23:07;17.17;;;14.63;;
26303;SDS011;70693;48.680;8.890;2024-03-07T07:25:33;16.55;;;13.30;;
26303;SDS011;70693;48.680;8.890;2024-03-07T07:27:59;16.35;;;13.20;;
26303;SDS011;70693;48.680;8.890;2024-03-07T07:30:25;17.67;;;14.15;;
26303;SDS011;70693;48.680;8.890;2024-03-07T07:32:54;16.65;;;13.25;;
26303;SDS011;70693;48.680;8.890;2024-03-07T07:35:19;16.88;;;13.18;;
26303;SDS011;70693;48.680;8.890;2024-03-07T07:37:46;18.83;;;12.93;;
26303;SDS011;70693;48.680;8.890;2024-03-07T07:40:17;16.17;;;13.32;;
26303;SDS011;70693;48.680;8.890;2024-03-07T07:42:44;15.13;;;12.38;;
26303;SDS011;70693;48.680;8.890;2024-03-07T07:45:11;16.70;;;11.75;;
26303;SDS011;70693;48.680;8.890;2024-03-07T07:47:38;15.95;;;12.50;;
26303;SDS011;70693;48.680;8.890;2024-03-07T07:50:16;16.48;;;12.15;;
26303;SDS011;70693;48.680;8.890;2024-03-07T07:52:44;14.35;;;11.35;;
26303;SDS011;70693;48.680;8.890;2024-03-07T07:55:13;15.02;;;12.20;;
26303;SDS011;70693;48.680;8.890;2024-03-07T07:57:46;13.98;;;11.25;;
26303;SDS011;70693;48.680;8.890;2024-03-07T08:00:14;16.08;;;12.20;;
26303;SDS011;70693;48.680;8.890;2024-03-07T08:05:21;16.05;;;12.20;;
26303;SDS011;70693;48.680;8.890;2024-03-07T08:07:48;15.80;;;12.48;;
26303;SDS011;70693;48.680;8.890;2024-03-07T08:10:16;13.63;;;11.00;;
26303;SDS011;70693;48.680;8.890;2024-03-07T08:12:43;13.07;;;10.98;;
26303;SDS011;70693;48.680;8.890;2024-03-07T08:15:11;13.02;;;11.20;;
26303;SDS011;70693;48.680;8.890;2024-03-07T08:17:41;13.55;;;11.05;;
26303;SDS011;70693;48.680;8.890;2024-03-07T08:20:15;15.45;;;12.00;;
26303;SDS011;70693;48.680;8.890;2024-03-07T08:22:43;14.63;;;11.07;;
26303;SDS011;70693;48.680;8.890;2024-03-07T08:25:10;13.65;;;11.00;;
26303;SDS011;70693;48.680;8.890;2024-03-07T08:27:38;13.45;;;10.90;;
26303;SDS011;70693;48.680;8.890;2024-03-07T08:30:04;12.20;;;10.43;;
26303;SDS011;70693;48.680;8.890;2024-03-07T08:32:38;13.65;;;10.73;;
26303;SDS011;70693;48.680;8.890;2024-03-07T08:35:04;14.50;;;10.80;;
26303;SDS011;70693;48.680;8.890;2024-03-07T08:40:03;12.63;;;10.25;;
26303;SDS011;70693;48.680;8.890;2024-03-07T08:42:32;11.88;;;9.75;;
26303;SDS011;70693;48.680;8.890;2024-03-07T08:45:01;11.35;;;9.60;;
26303;SDS011;70693;48.680;8.890;2024-03-07T08:47:34;10.38;;;9.27;;
26303;SDS011;70693;48.680;8.890;2024-03-07T08:50:00;12.10;;;10.07;;
26303;SDS011;70693;48.680;8.890;2024-03-07T08:52:31;12.60;;;9.68;;
26303;SDS011;70693;48.680;8.890;2024-03-07T08:54:57;13.80;;;10.43;;
26303;SDS011;70693;48.680;8.890;2024-03-07T08:57:23;13.95;;;10.30;;
26303;SDS011;70693;48.680;8.890;2024-03-07T08:59:48;12.23;;;10.13;;
26303;SDS011;70693;48.680;8.890;2024-03-07T09:02:15;10.65;;;9.55;;
26303;SDS011;70693;48.680;8.890;2024-03-07T09:04:40;11.77;;;9.77;;
26303;SDS011;70693;48.680;8.890;2024-03-07T09:07:06;19.77;;;14.20;;
26303;SDS011;70693;48.680;8.890;2024-03-07T09:09:33;17.40;;;14.70;;
26303;SDS011;70693;48.680;8.890;2024-03-07T09:12:00;18.95;;;14.63;;
26303;SDS011;70693;48.680;8.890;2024-03-07T09:14:27;22.45;;;15.27;;
26303;SDS011;70693;48.680;8.890;2024-03-07T09:16:53;16.90;;;14.15;;
26303;SDS011;70693;48.680;8.890;2024-03-07T09:19:19;19.50;;;13.57;;
26303;SDS011;70693;48.680;8.890;2024-03-07T09:21:50;24.02;;;14.52;;
26303;SDS011;70693;48.680;8.890;2024-03-07T09:24:17;16.88;;;13.43;;
26303;SDS011;70693;48.680;8.890;2024-03-07T09:26:46;17.98;;;13.90;;
26303;SDS011;70693;48.680;8.890;2024-03-07T09:29:16;16.33;;;13.85;;
26303;SDS011;70693;48.680;8.890;2024-03-07T09:31:43;17.52;;;14.00;;
26303;SDS011;70693;48.680;8.890;2024-03-07T09:34:09;17.08;;;12.75;;
26303;SDS011;70693;48.680;8.890;2024-03-07T09:36:35;19.45;;;14.48;;
26303;SDS011;70693;48.680;8.890;2024-03-07T09:39:01;15.70;;;13.55;;
26303;SDS011;70693;48.680;8.890;2024-03-07T09:41:26;18.02;;;13.32;;
26303;SDS011;70693;48.680;8.890;2024-03-07T09:43:52;16.38;;;13.35;;
26303;SDS011;70693;48.680;8.890;2024-03-07T09:46:21;18.75;;;13.70;;
26303;SDS011;70693;48.680;8.890;2024-03-07T09:48:48;15.80;;;13.07;;
26303;SDS011;70693;48.680;8.890;2024-03-07T09:51:18;17.75;;;13.40;;
26303;SDS011;70693;48.680;8.890;2024-03-07T09:53:45;15.75;;;12.80;;
26303;SDS011;70693;48.680;8.890;2024-03-07T09:56:14;16.58;;;12.95;;
26303;SDS011;70693;48.680;8.890;2024-03-07T09:58:45;16.95;;;13.32;;
26303;SDS011;70693;48.680;8.890;2024-03-07T10:01:14;15.93;;;12.90;;
26303;SDS011;70693;48.680;8.890;2024-03-07T10:03:43;17.27;;;12.80;;
26303;SDS011;70693;48.680;8.890;2024-03-07T10:06:11;14.15;;;11.65;;
26303;SDS011;70693;48.680;8.890;2024-03-07T10:08:38;13.63;;;11.40;;
26303;SDS011;70693;48.680;8.890;2024-03-07T10:11:05;14.43;;;11.43;;
26303;SDS011;70693;48.680;8.890;2024-03-07T10:13:33;14.93;;;12.02;;
26303;SDS011;70693;48.680;8.890;2024-03-07T10:16:00;15.07;;;11.95;;
26303;SDS011;70693;48.680;8.890;2024-03-07T10:18:26;15.55;;;10.88;;
26303;SDS011;70693;48.680;8.890;2024-03-07T10:20:55;15.52;;;11.55;;
26303;SDS011;70693;48.680;8.890;2024-03-07T10:23:24;12.68;;;10.65;;
26303;SDS011;70693;48.680;8.890;2024-03-07T10:25:50;14.02;;;11.55;;
26303;SDS011;70693;48.680;8.890;2024-03-07T10:28:19;14.15;;;11.45;;
26303;SDS011;70693;48.680;8.890;2024-03-07T10:30:46;13.57;;;11.02;;
26303;SDS011;70693;48.680;8.890;2024-03-07T10:33:13;14.60;;;11.00;;
26303;SDS011;70693;48.680;8.890;2024-03-07T10:35:38;13.40;;;10.73;;
26303;SDS011;70693;48.680;8.890;2024-03-07T10:38:04;13.32;;;10.88;;
26303;SDS011;70693;48.680;8.890;2024-03-07T10:40:36;13.07;;;10.45;;
26303;SDS011;70693;48.680;8.890;2024-03-07T10:43:07;12.13;;;10.82;;
26303;SDS011;70693;48.680;8.890;2024-03-07T10:45:35;14.55;;;12.00;;
26303;SDS011;70693;48.680;8.890;2024-03-07T10:48:11;14.02;;;10.90;;
26303;SDS011;70693;48.680;8.890;2024-03-07T10:53:58;12.75;;;10.95;;
26303;SDS011;70693;48.680;8.890;2024-03-07T11:04:37;13.25;;;10.43;;
26303;SDS011;70693;48.680;8.890;2024-03-07T11:07:04;12.10;;;10.27;;
26303;SDS011;70693;48.680;8.890;2024-03-07T11:09:31;13.70;;;10.75;;
26303;SDS011;70693;48.680;8.890;2024-03-07T11:11:59;14.35;;;11.35;;
26303;SDS011;70693;48.680;8.890;2024-03-07T11:14:28;14.85;;;10.85;;
26303;SDS011;70693;48.680;8.890;2024-03-07T11:16:55;13.00;;;10.73;;
26303;SDS011;70693;48.680;8.890;2024-03-07T11:21:55;13.18;;;10.48;;
26303;SDS011;70693;48.680;8.890;2024-03-07T11:24:30;14.15;;;10.70;;
26303;SDS011;70693;48.680;8.890;2024-03-07T11:27:04;14.32;;;11.05;;
26303;SDS011;70693;48.680;8.890;2024-03-07T11:32:08;13.77;;;10.07;;
26303;SDS011;70693;48.680;8.890;2024-03-07T11:34:37;12.02;;;9.20;;
26303;SDS011;70693;48.680;8.890;2024-03-07T11:37:06;11.07;;;9.25;;
26303;SDS011;70693;48.680;8.890;2024-03-07T11:39:39;11.70;;;9.00;;
26303;SDS011;70693;48.680;8.890;2024-03-07T11:42:09;12.00;;;9.75;;
26303;SDS011;70693;48.680;8.890;2024-03-07T11:44:44;10.70;;;8.90;;
26303;SDS011;70693;48.680;8.890;2024-03-07T11:47:11;12.27;;;9.73;;
26303;SDS011;70693;48.680;8.890;2024-03-07T11:49:38;12.18;;;9.60;;
26303;SDS011;70693;48.680;8.890;2024-03-07T11:52:04;12.07;;;9.68;;
26303;SDS011;70693;48.680;8.890;2024-03-07T11:54:37;12.25;;;9.23;;
26303;SDS011;70693;48.680;8.890;2024-03-07T11:57:05;11.38;;;9.00;;
26303;SDS011;70693;48.680;8.890;2024-03-07T11:59:38;11.80;;;9.23;;
26303;SDS011;70693;48.680;8.890;2024-03-07T12:02:13;11.80;;;9.13;;
26303;SDS011;70693;48.680;8.890;2024-03-07T12:04:40;12.45;;;9.38;;
26303;SDS011;70693;48.680;8.890;2024-03-07T12:07:06;12.52;;;9.15;;
26303;SDS011;70693;48.680;8.890;2024-03-07T12:09:36;10.75;;;8.65;;
26303;SDS011;70693;48.680;8.890;2024-03-07T12:12:03;11.48;;;8.60;;
26303;SDS011;70693;48.680;8.890;2024-03-07T12:14:30;10.30;;;8.20;;
26303;SDS011;70693;48.680;8.890;2024-03-07T12:16:56;11.75;;;8.80;;
26303;SDS011;70693;48.680;8.890;2024-03-07T12:19:22;9.85;;;7.88;;
26303;SDS011;70693;48.680;8.890;2024-03-07T12:21:48;9.43;;;7.72;;
26303;SDS011;70693;48.680;8.890;2024-03-07T12:24:14;10.50;;;8.40;;
26303;SDS011;70693;48.680;8.890;2024-03-07T12:26:41;11.75;;;8.48;;
26303;SDS011;70693;48.680;8.890;2024-03-07T12:29:08;9.95;;;8.00;;
26303;SDS011;70693;48.680;8.890;2024-03-07T12:31:52;9.95;;;8.18;;
26303;SDS011;70693;48.680;8.890;2024-03-07T12:34:18;13.25;;;10.15;;
26303;SDS011;70693;48.680;8.890;2024-03-07T12:36:44;17.17;;;12.23;;
26303;SDS011;70693;48.680;8.890;2024-03-07T12:39:23;17.10;;;12.57;;
26303;SDS011;70693;48.680;8.890;2024-03-07T12:41:51;18.20;;;12.68;;
26303;SDS011;70693;48.680;8.890;2024-03-07T12:44:20;17.77;;;12.48;;
26303;SDS011;70693;48.680;8.890;2024-03-07T12:46:47;19.05;;;12.77;;
26303;SDS011;70693;48.680;8.890;2024-03-07T12:49:24;16.48;;;12.10;;
26303;SDS011;70693;48.680;8.890;2024-03-07T12:51:55;15.35;;;11.82;;
26303;SDS011;70693;48.680;8.890;2024-03-07T12:54:24;18.05;;;13.43;;
26303;SDS011;70693;48.680;8.890;2024-03-07T12:56:52;16.35;;;11.52;;
26303;SDS011;70693;48.680;8.890;2024-03-07T12:59:17;15.27;;;11.50;;
26303;SDS011;70693;48.680;8.890;2024-03-07T13:01:44;17.05;;;12.15;;
26303;SDS011;70693;48.680;8.890;2024-03-07T13:04:12;17.15;;;11.57;;
26303;SDS011;70693;48.680;8.890;2024-03-07T13:06:39;16.27;;;11.57;;
26303;SDS011;70693;48.680;8.890;2024-03-07T13:09:08;18.30;;;11.23;;
26303;SDS011;70693;48.680;8.890;2024-03-07T13:11:40;15.88;;;10.93;;
26303;SDS011;70693;48.680;8.890;2024-03-07T13:14:12;17.40;;;11.82;;
26303;SDS011;70693;48.680;8.890;2024-03-07T13:16:38;13.55;;;11.10;;
26303;SDS011;70693;48.680;8.890;2024-03-07T13:19:04;15.18;;;11.55;;
26303;SDS011;70693;48.680;8.890;2024-03-07T13:21:33;14.18;;;10.55;;
26303;SDS011;70693;48.680;8.890;2024-03-07T13:24:00;15.65;;;10.75;;
26303;SDS011;70693;48.680;8.890;2024-03-07T13:26:26;13.73;;;10.80;;
26303;SDS011;70693;48.680;8.890;2024-03-07T13:28:55;14.88;;;10.82;;
26303;SDS011;70693;48.680;8.890;2024-03-07T13:31:21;14.95;;;10.98;;
26303;SDS011;70693;48.680;8.890;2024-03-07T13:33:48;16.08;;;10.32;;
26303;SDS011;70693;48.680;8.890;2024-03-07T13:36:16;14.00;;;10.10;;
26303;SDS011;70693;48.680;8.890;2024-03-07T13:38:48;14.85;;;10.35;;
26303;SDS011;70693;48.680;8.890;2024-03-07T13:41:17;14.65;;;10.48;;
26303;SDS011;70693;48.680;8.890;2024-03-07T13:43:44;13.57;;;9.60;;
26303;SDS011;70693;48.680;8.890;2024-03-07T13:46:09;13.27;;;9.48;;
26303;SDS011;70693;48.680;8.890;2024-03-07T13:48:37;13.23;;;9.82;;
26303;SDS011;70693;48.680;8.890;2024-03-07T13:51:03;11.90;;;9.55;;
26303;SDS011;70693;48.680;8.890;2024-03-07T13:53:33;13.63;;;10.15;;
26303;SDS011;70693;48.680;8.890;2024-03-07T14:32:10;11.98;;;8.63;;
26303;SDS011;70693;48.680;8.890;2024-03-07T14:34:46;12.40;;;9.13;;
26303;SDS011;70693;48.680;8.890;2024-03-07T14:37:31;10.77;;;8.00;;
26303;SDS011;70693;48.680;8.890;2024-03-07T14:40:21;11.70;;;8.95;;
26303;SDS011;70693;48.680;8.890;2024-03-07T14:42:47;10.98;;;8.85;;
26303;SDS011;70693;48.680;8.890;2024-03-07T14:45:47;10.82;;;8.38;;
26303;SDS011;70693;48.680;8.890;2024-03-07T14:48:06;11.45;;;8.82;;
26303;SDS011;70693;48.680;8.890;2024-03-07T14:50:38;10.40;;;8.57;;
26303;SDS011;70693;48.680;8.890;2024-03-07T14:53:06;11.82;;;8.60;;
26303;SDS011;70693;48.680;8.890;2024-03-07T14:55:32;11.45;;;8.30;;
26303;SDS011;70693;48.680;8.890;2024-03-07T14:58:00;11.20;;;8.85;;
26303;SDS011;70693;48.680;8.890;2024-03-07T15:00:26;10.60;;;8.07;;
26303;SDS011;70693;48.680;8.890;2024-03-07T15:02:52;12.18;;;8.40;;
26303;SDS011;70693;48.680;8.890;2024-03-07T15:05:23;10.30;;;7.85;;
26303;SDS011;70693;48.680;8.890;2024-03-07T15:07:52;12.88;;;8.77;;
26303;SDS011;70693;48.680;8.890;2024-03-07T15:10:26;11.23;;;8.45;;
26303;SDS011;70693;48.680;8.890;2024-03-07T15:12:55;11.02;;;8.32;;
26303;SDS011;70693;48.680;8.890;2024-03-07T15:15:21;10.82;;;8.40;;
26303;SDS011;70693;48.680;8.890;2024-03-07T15:17:50;10.85;;;8.38;;
26303;SDS011;70693;48.680;8.890;2024-03-07T15:20:16;11.57;;;8.57;;
26303;SDS011;70693;48.680;8.890;2024-03-07T15:22:52;10.13;;;8.15;;
26303;SDS011;70693;48.680;8.890;2024-03-07T15:25:18;10.35;;;7.70;;
26303;SDS011;70693;48.680;8.890;2024-03-07T15:27:51;10.68;;;7.95;;